Time;durP1;ratioP1;P1;durP2;ratioP2;P2;SDS_P1;SDS_P2;PMS_P1;PMS_P2;Temp;Humidity;BMP_temperature;BMP_pressure;BME280_temperature;BME280_humidity;BME280_pressure;Samples;Min_cycle;Max_cycle;Signal;HPM_P1;HPM_P2
2023/09/28 00:01:17;;;;;;;22.20;16.90;;;;;;;16.24;88.38;101365.41;105787;1265;97933;-82
2023/09/28 00:04:06;;;;;;;22.90;16.20;;;;;;;16.20;88.02;101368.09;105791;1267;98845;-81
2023/09/28 00:06:51;;;;;;;21.50;17.00;;;;;;;16.16;88.31;101365.92;105881;1262;98508;-82
2023/09/28 00:09:37;;;;;;;23.80;16.90;;;;;;;16.14;88.72;101368.37;105894;1264;101392;-82
2023/09/28 00:12:23;;;;;;;21.70;16.90;;;;;;;16.10;88.67;101367.29;105910;1264;100442;-83
2023/09/28 00:15:10;;;;;;;21.40;16.90;;;;;;;16.05;88.75;101365.89;105922;1267;97777;-83
2023/09/28 00:17:55;;;;;;;24.10;16.20;;;;;;;16.01;88.86;101363.68;105843;1264;97906;-83
2023/09/28 00:20:41;;;;;;;25.60;17.10;;;;;;;15.95;88.96;101358.30;106029;1267;97652;-83
2023/09/28 00:23:26;;;;;;;23.10;16.60;;;;;;;15.90;89.54;101353.88;105872;1263;102107;-84
2023/09/28 00:26:12;;;;;;;27.30;16.70;;;;;;;15.85;89.50;101352.11;106068;1265;100138;-82
2023/09/28 00:29:00;;;;;;;31.00;17.60;;;;;;;15.79;89.74;101352.22;106013;1265;99043;-83
2023/09/28 00:31:46;;;;;;;24.90;17.30;;;;;;;15.73;90.14;101353.48;105861;1265;98073;-83
2023/09/28 00:34:31;;;;;;;26.50;18.50;;;;;;;15.68;90.36;101353.79;106040;1267;98144;-83
2023/09/28 00:37:17;;;;;;;20.70;15.80;;;;;;;15.65;90.39;101354.06;106015;1266;101427;-83
2023/09/28 00:40:16;;;;;;;23.00;16.10;;;;;;;15.62;90.17;101351.77;105723;1267;99185;-82
2023/09/28 00:43:01;;;;;;;23.70;16.80;;;;;;;15.59;90.01;101354.38;105870;1263;98755;-83
2023/09/28 00:45:47;;;;;;;26.10;16.80;;;;;;;15.55;89.93;101350.54;105914;1265;98033;-83
2023/09/28 00:48:40;;;;;;;22.60;17.00;;;;;;;15.52;90.29;101350.98;105963;1266;98519;-83
2023/09/28 00:51:27;;;;;;;23.20;16.40;;;;;;;15.49;90.31;101351.67;106833;1266;103131;-83
2023/09/28 00:54:13;;;;;;;25.20;17.00;;;;;;;15.46;90.61;101349.37;107723;1261;99181;-83
2023/09/28 00:57:00;;;;;;;24.20;17.30;;;;;;;15.42;90.81;101347.84;106618;1263;98595;-84
2023/09/28 00:59:46;;;;;;;21.20;16.30;;;;;;;15.40;90.73;101346.95;106687;1261;97945;-82
2023/09/28 01:02:31;;;;;;;25.80;17.70;;;;;;;15.36;90.87;101349.88;105926;1264;97016;-83
2023/09/28 01:05:22;;;;;;;18.60;15.30;;;;;;;15.33;90.64;101346.15;105815;1264;102636;-83
2023/09/28 01:08:11;;;;;;;23.20;16.40;;;;;;;15.30;90.82;101344.61;105843;1267;107944;-82
2023/09/28 01:10:57;;;;;;;20.70;15.70;;;;;;;15.26;90.41;101347.08;105858;1261;99012;-82
2023/09/28 01:13:42;;;;;;;25.30;17.60;;;;;;;15.22;90.27;101346.05;105964;1265;98086;-81
2023/09/28 01:16:30;;;;;;;22.50;17.40;;;;;;;15.18;90.31;101346.53;105879;1264;97889;-83
2023/09/28 01:19:15;;;;;;;21.80;17.90;;;;;;;15.17;90.40;101345.73;105822;1266;102201;-82
2023/09/28 01:22:02;;;;;;;23.00;16.40;;;;;;;15.16;90.65;101343.86;106119;1264;99118;-82
2023/09/28 01:24:48;;;;;;;24.20;16.70;;;;;;;15.16;90.50;101340.21;105873;1266;98013;-82
2023/09/28 01:27:33;;;;;;;23.40;16.60;;;;;;;15.14;90.65;101339.02;105792;1262;97985;-84
2023/09/28 01:30:18;;;;;;;21.10;16.40;;;;;;;15.11;91.02;101333.83;105780;1266;97972;-82
2023/09/28 01:33:04;;;;;;;25.10;18.00;;;;;;;15.08;90.81;101333.77;105871;1260;101345;-83
2023/09/28 01:35:49;;;;;;;23.70;16.30;;;;;;;15.06;91.03;101329.42;105747;1260;99107;-83
2023/09/28 01:38:40;;;;;;;22.80;16.20;;;;;;;15.04;90.85;101327.88;105799;1265;98324;-81
2023/09/28 01:41:25;;;;;;;21.20;16.40;;;;;;;15.01;91.06;101327.20;105903;1264;98046;-81
2023/09/28 01:44:11;;;;;;;19.90;15.00;;;;;;;14.99;91.15;101327.48;105802;1266;95989;-81
2023/09/28 01:46:57;;;;;;;21.40;16.10;;;;;;;14.96;91.01;101321.36;105793;1261;101907;-81
2023/09/28 01:49:44;;;;;;;21.70;15.60;;;;;;;14.93;90.91;101322.12;105808;1264;99273;-81
2023/09/28 01:52:29;;;;;;;22.40;15.70;;;;;;;14.91;90.81;101321.16;105816;1264;97987;-83
2023/09/28 01:55:15;;;;;;;26.00;16.00;;;;;;;14.90;91.28;101317.66;105857;1273;97886;-82
2023/09/28 01:58:03;;;;;;;23.70;16.20;;;;;;;14.89;91.10;101317.05;105974;1264;97946;-82
2023/09/28 02:00:49;;;;;;;19.40;14.60;;;;;;;14.86;90.76;101313.48;105760;1266;102188;-82
2023/09/28 02:03:34;;;;;;;21.90;14.80;;;;;;;14.84;90.46;101315.22;105826;1264;99095;-81
2023/09/28 02:06:22;;;;;;;31.60;17.20;;;;;;;14.82;90.54;101312.77;105949;1267;97974;-81
2023/09/28 02:09:07;;;;;;;22.80;15.30;;;;;;;14.80;90.33;101314.11;105936;1262;98089;-82
2023/09/28 02:11:56;;;;;;;26.50;17.30;;;;;;;14.78;90.56;101318.70;105775;1262;97930;-82
2023/09/28 02:14:42;;;;;;;24.20;19.00;;;;;;;14.75;91.03;101314.24;105897;1267;101732;-82
2023/09/28 02:17:28;;;;;;;22.80;17.80;;;;;;;14.74;91.34;101314.73;105872;1264;100408;-82
2023/09/28 02:20:16;;;;;;;33.60;18.50;;;;;;;14.73;91.28;101312.19;105870;1264;98407;-83
2023/09/28 02:23:01;;;;;;;28.40;18.50;;;;;;;14.73;91.68;101309.53;105784;1268;97883;-83
2023/09/28 02:25:47;;;;;;;31.00;19.40;;;;;;;14.72;92.20;101308.31;105672;1267;99032;-82
2023/09/28 02:28:33;;;;;;;24.90;19.50;;;;;;;14.72;92.35;101311.27;105951;1266;101365;-84
2023/09/28 02:31:19;;;;;;;25.90;19.30;;;;;;;14.71;92.83;101306.50;105936;1264;99104;-82
2023/09/28 02:34:05;;;;;;;28.00;19.20;;;;;;;14.70;93.07;101306.07;106030;1264;98978;-83
2023/09/28 02:36:51;;;;;;;29.10;19.70;;;;;;;14.71;93.31;101303.25;105940;1264;97987;-83
2023/09/28 02:39:36;;;;;;;27.10;19.10;;;;;;;14.71;93.46;101303.46;105794;1266;97925;-83
2023/09/28 02:42:22;;;;;;;27.60;19.10;;;;;;;14.71;93.41;101309.15;105837;1260;102683;-82
2023/09/28 02:45:11;;;;;;;25.10;18.50;;;;;;;14.71;93.45;101307.91;105876;1267;100519;-82
2023/09/28 02:47:57;;;;;;;26.70;19.70;;;;;;;14.72;93.35;101309.20;106830;1264;98054;-82
2023/09/28 02:50:43;;;;;;;31.90;18.30;;;;;;;14.73;93.33;101308.12;105875;1263;99275;-84
2023/09/28 02:53:29;;;;;;;25.20;17.70;;;;;;;14.72;92.92;101309.10;105797;1260;97910;-84
2023/09/28 02:56:15;;;;;;;29.50;18.50;;;;;;;14.69;92.66;101308.88;106015;1261;101408;-82
2023/09/28 02:59:01;;;;;;;27.10;18.50;;;;;;;14.67;92.69;101307.73;105961;1266;99129;-82
2023/09/28 03:01:46;;;;;;;23.10;18.00;;;;;;;14.64;92.80;101309.17;106011;1261;98293;-80
2023/09/28 03:04:33;;;;;;;23.60;18.00;;;;;;;14.61;92.74;101309.20;105940;1262;98001;-84
2023/09/28 03:07:19;;;;;;;24.50;18.10;;;;;;;14.58;92.64;101309.26;105891;1264;98417;-82
2023/09/28 03:10:07;;;;;;;23.40;16.70;;;;;;;14.55;93.03;101307.27;105999;1264;102626;-83
2023/09/28 03:12:53;;;;;;;23.80;18.40;;;;;;;14.51;92.99;101304.14;105795;1260;99208;-81
2023/09/28 03:15:43;;;;;;;27.50;18.10;;;;;;;14.48;92.77;101305.36;105908;1264;99012;-81
2023/09/28 03:18:28;;;;;;;22.60;17.70;;;;;;;14.43;92.77;101303.62;106052;1260;98121;-83
2023/09/28 03:21:14;;;;;;;25.70;17.80;;;;;;;14.39;92.62;101302.05;105975;1266;98439;-82
2023/09/28 03:24:00;;;;;;;27.10;17.70;;;;;;;14.35;92.38;101303.05;105898;1265;101481;-82
2023/09/28 03:26:46;;;;;;;30.10;18.30;;;;;;;14.31;92.52;101301.89;105716;1264;99291;-83
2023/09/28 03:29:32;;;;;;;26.60;19.00;;;;;;;14.27;92.52;101304.58;105877;1262;98012;-84
2023/09/28 03:32:18;;;;;;;24.90;16.70;;;;;;;14.23;92.09;101302.11;105806;1263;97994;-83
2023/09/28 03:35:05;;;;;;;23.60;17.20;;;;;;;14.18;92.19;101304.72;105864;1262;97874;-82
2023/09/28 03:37:56;;;;;;;27.50;18.10;;;;;;;14.13;91.70;101300.65;105607;1261;101724;-82
2023/09/28 03:40:43;;;;;;;;;;;;;;;14.09;91.77;101302.40;105990;1261;99203;-84
2023/09/28 03:43:29;;;;;;;25.50;16.40;;;;;;;14.02;91.90;101302.08;105806;1262;98085;-83
2023/09/28 03:46:21;;;;;;;21.80;17.20;;;;;;;13.97;91.92;101301.57;105855;1262;98134;-84
2023/09/28 03:49:06;;;;;;;24.30;18.10;;;;;;;13.94;92.33;101296.37;105979;1261;98555;-83
2023/09/28 03:51:51;;;;;;;25.50;17.80;;;;;;;13.92;92.69;101299.95;105971;1261;101404;-84
2023/09/28 03:54:38;;;;;;;23.80;16.90;;;;;;;13.91;92.43;101300.86;105871;1264;99298;-83
2023/09/28 03:57:23;;;;;;;28.90;19.80;;;;;;;13.90;92.53;101304.27;105825;1261;107425;-83
2023/09/28 04:00:18;;;;;;;32.10;21.30;;;;;;;13.89;92.76;101308.83;105958;1266;97998;-83
2023/09/28 04:03:04;;;;;;;32.00;22.80;;;;;;;13.89;93.13;101316.56;106020;1260;98073;-83
2023/09/28 04:05:50;;;;;;;33.80;22.10;;;;;;;13.86;93.45;101319.41;105910;1261;102637;-82
2023/09/28 04:08:37;;;;;;;31.20;22.80;;;;;;;13.85;93.42;101317.74;105964;1260;99200;-82
2023/09/28 04:11:22;;;;;;;33.90;23.70;;;;;;;13.85;93.58;101321.55;105836;1269;97928;-82
2023/09/28 04:14:08;;;;;;;34.90;22.90;;;;;;;13.85;93.50;101321.91;105881;1262;98075;-83
2023/09/28 04:16:54;;;;;;;32.90;23.20;;;;;;;13.84;93.36;101320.76;105811;1265;98522;-82
2023/09/28 04:19:40;;;;;;;35.40;22.40;;;;;;;13.83;93.39;101321.29;105828;1260;101477;-81
2023/09/28 04:22:25;;;;;;;31.40;22.20;;;;;;;13.82;93.18;101315.80;105823;1261;99309;-82
2023/09/28 04:25:11;;;;;;;38.40;25.60;;;;;;;13.82;93.36;101309.38;105884;1261;97973;-83
2023/09/28 04:27:57;;;;;;;40.30;27.10;;;;;;;13.82;93.91;101306.30;105788;1267;97972;-83
2023/09/28 04:30:43;;;;;;;39.20;26.60;;;;;;;13.82;94.21;101305.27;105868;1264;97697;-83
2023/09/28 04:33:28;;;;;;;33.10;24.20;;;;;;;13.82;94.11;101308.46;105966;1264;101390;-82
2023/09/28 04:36:14;;;;;;;37.30;26.80;;;;;;;13.81;93.71;101308.77;105850;1261;99297;-81
2023/09/28 04:39:00;;;;;;;35.50;24.40;;;;;;;13.79;94.02;101307.23;105573;1262;97976;-82
2023/09/28 04:41:46;;;;;;;36.00;24.90;;;;;;;13.78;94.01;101308.45;105946;1261;97970;-82
2023/09/28 04:44:31;;;;;;;26.20;20.50;;;;;;;13.74;93.59;101311.43;105885;1262;99201;-82
2023/09/28 04:47:17;;;;;;;24.30;18.60;;;;;;;13.66;93.08;101315.06;105858;1264;101395;-81
2023/09/28 04:50:03;;;;;;;24.40;18.30;;;;;;;13.58;93.22;101312.27;105954;1262;100358;-83
2023/09/28 04:52:49;;;;;;;27.70;20.30;;;;;;;13.53;93.47;101312.55;105822;1261;98877;-81
2023/09/28 04:55:34;;;;;;;25.10;20.10;;;;;;;13.48;93.53;101308.63;105838;1263;97860;-83
2023/09/28 04:58:20;;;;;;;30.10;21.70;;;;;;;13.46;94.27;101307.86;105739;1262;98411;-84
2023/09/28 05:01:06;;;;;;;33.00;22.90;;;;;;;13.45;94.33;101309.05;105976;1261;101445;-83
2023/09/28 05:03:53;;;;;;;29.50;21.80;;;;;;;13.45;94.34;101309.92;105978;1264;100107;-83
2023/09/28 05:06:40;;;;;;;30.00;21.90;;;;;;;13.46;94.33;101306.08;105914;1262;99061;-82
2023/09/28 05:09:27;;;;;;;27.80;20.10;;;;;;;13.47;94.25;101303.23;105933;1264;97985;-82
2023/09/28 05:12:12;;;;;;;32.60;22.90;;;;;;;13.47;94.28;101299.98;105891;1262;97963;-82
2023/09/28 05:14:58;;;;;;;40.40;24.00;;;;;;;13.48;94.93;101300.44;105901;1263;101416;-82
2023/09/28 05:17:44;;;;;;;34.30;23.70;;;;;;;13.48;95.15;101297.52;105931;1266;99171;-82
2023/09/28 05:20:30;;;;;;;31.00;22.50;;;;;;;13.50;95.28;101294.95;105831;1266;99272;-82
2023/09/28 05:23:16;;;;;;;41.60;23.80;;;;;;;13.50;95.34;101298.32;105943;1267;97248;-81
2023/09/28 05:26:04;;;;;;;33.40;24.10;;;;;;;13.50;95.50;101299.59;105839;1264;97999;-82
2023/09/28 05:28:49;;;;;;;31.50;22.20;;;;;;;13.51;95.62;101302.51;106116;1267;101482;-82
2023/09/28 05:31:35;;;;;;;33.20;24.20;;;;;;;13.52;95.66;101302.89;105873;1261;100356;-81
2023/09/28 05:34:20;;;;;;;32.80;24.00;;;;;;;13.55;96.03;101303.13;106111;1265;98522;-81
2023/09/28 05:37:06;;;;;;;32.10;23.60;;;;;;;13.57;95.95;101305.39;105997;1260;97943;-82
2023/09/28 05:39:51;;;;;;;37.40;24.10;;;;;;;13.58;96.04;101307.23;105790;1267;98496;-83
2023/09/28 05:42:37;;;;;;;33.90;23.80;;;;;;;13.59;96.44;101308.50;105978;1262;103141;-82
2023/09/28 05:45:22;;;;;;;35.00;24.60;;;;;;;13.60;96.68;101310.19;106023;1260;99638;-83
2023/09/28 05:48:08;;;;;;;35.80;26.00;;;;;;;13.61;97.11;101310.63;106039;1260;98948;-82
2023/09/28 05:50:53;;;;;;;35.70;25.30;;;;;;;13.65;97.30;101316.97;106094;1261;98026;-83
2023/09/28 05:53:40;;;;;;;37.30;25.80;;;;;;;13.69;97.30;101311.95;105964;1266;99678;-82
2023/09/28 05:56:25;;;;;;;38.60;27.00;;;;;;;13.75;97.49;101311.56;105824;1260;102028;-83
2023/09/28 05:59:11;;;;;;;44.20;28.90;;;;;;;13.80;97.73;101310.00;106029;1260;100521;-82
2023/09/28 06:01:56;;;;;;;43.30;28.00;;;;;;;13.85;98.25;101309.39;106054;1260;99514;-83
2023/09/28 06:04:43;;;;;;;40.80;29.20;;;;;;;13.91;98.72;101311.80;105766;1265;98004;-81
2023/09/28 06:07:28;;;;;;;44.90;32.40;;;;;;;13.98;99.09;101307.52;106188;1261;98133;-83
2023/09/28 06:10:14;;;;;;;48.50;31.90;;;;;;;14.06;99.65;101302.11;105968;1267;103310;-82
2023/09/28 06:13:00;;;;;;;52.20;33.30;;;;;;;14.13;99.92;101296.46;105865;1260;100419;-82
2023/09/28 06:15:45;;;;;;;49.90;32.60;;;;;;;14.20;100.00;101296.15;105952;1261;98554;-82
2023/09/28 06:18:30;;;;;;;45.30;31.80;;;;;;;14.25;100.00;101298.16;105952;1261;97889;-82
2023/09/28 06:21:17;;;;;;;42.90;31.20;;;;;;;14.32;100.00;101296.21;106401;1261;98419;-92
2023/09/28 06:24:02;;;;;;;44.10;30.20;;;;;;;14.40;100.00;101299.04;106688;1261;101768;-90
2023/09/28 06:26:53;;;;;;;44.00;27.90;;;;;;;14.47;100.00;101300.17;106688;1266;100586;-90
2023/09/28 06:29:38;;;;;;;40.50;30.20;;;;;;;14.55;100.00;101299.48;106618;1260;99896;-85
2023/09/28 06:32:25;;;;;;;42.40;28.00;;;;;;;14.62;100.00;101299.66;106347;1266;97872;-89
2023/09/28 06:35:11;;;;;;;47.30;31.30;;;;;;;14.70;100.00;101296.20;105998;1267;97946;-86
2023/09/28 06:37:58;;;;;;;43.30;30.80;;;;;;;14.76;100.00;101296.29;106072;1264;102690;-90
2023/09/28 06:40:48;;;;;;;44.30;31.00;;;;;;;14.83;100.00;101296.29;106234;1264;99173;-88
2023/09/28 06:43:35;;;;;;;47.60;29.80;;;;;;;14.91;100.00;101292.89;106137;1260;98063;-89
2023/09/28 06:46:21;;;;;;;42.20;30.80;;;;;;;14.99;100.00;101294.52;105867;1264;98000;-87
2023/09/28 06:49:11;;;;;;;41.50;29.80;;;;;;;15.07;100.00;101291.16;105647;1266;148471;-91
2023/09/28 06:51:57;;;;;;;36.20;27.50;;;;;;;15.15;100.00;101293.66;106081;1260;102086;-88
2023/09/28 06:54:43;;;;;;;48.80;29.60;;;;;;;15.23;100.00;101292.83;105875;1261;100332;-89
2023/09/28 06:57:29;;;;;;;40.90;26.70;;;;;;;15.31;100.00;101289.17;106384;1263;97973;-81
2023/09/28 07:00:16;;;;;;;43.00;28.00;;;;;;;15.40;100.00;101290.52;106270;1261;97860;-88
2023/09/28 07:03:02;;;;;;;35.30;26.00;;;;;;;15.49;100.00;101293.14;106002;1264;97958;-87
2023/09/28 07:05:48;;;;;;;38.20;25.80;;;;;;;15.58;100.00;101293.77;106209;1260;101428;-86
2023/09/28 07:08:34;;;;;;;33.00;24.70;;;;;;;15.68;100.00;101296.44;105957;1261;99194;-87
2023/09/28 07:11:20;;;;;;;37.80;25.80;;;;;;;15.76;100.00;101298.51;106235;1267;99113;-88
2023/09/28 07:14:06;;;;;;;39.20;25.70;;;;;;;15.85;99.94;101299.12;106027;1267;97981;-86
2023/09/28 07:16:53;;;;;;;41.60;25.70;;;;;;;15.94;100.00;101300.80;105922;1261;98429;-85
2023/09/28 07:19:38;;;;;;;43.60;26.00;;;;;;;16.03;99.76;101300.25;106397;1261;102638;-89
2023/09/28 07:22:24;;;;;;;31.90;24.20;;;;;;;16.12;99.48;101299.00;105921;1261;99207;-85
2023/09/28 07:25:12;;;;;;;34.00;24.90;;;;;;;16.20;99.51;101298.44;106027;1261;97931;-92
2023/09/28 07:27:58;;;;;;;35.40;24.20;;;;;;;16.30;99.43;101297.10;105956;1260;97987;-87
2023/09/28 07:30:44;;;;;;;36.70;25.20;;;;;;;16.40;99.14;101299.61;106216;1261;98478;-85
2023/09/28 07:33:31;;;;;;;38.10;25.90;;;;;;;16.48;98.77;101298.80;106011;1261;102644;-84
2023/09/28 07:36:17;;;;;;;30.30;22.90;;;;;;;16.57;98.65;101300.81;106305;1261;100001;-88
2023/09/28 07:39:05;;;;;;;32.90;22.70;;;;;;;16.67;98.49;101302.39;106058;1260;99936;-89
2023/09/28 07:41:52;;;;;;;36.80;24.40;;;;;;;16.75;98.00;101300.63;106320;1266;96498;-86
2023/09/28 07:44:40;;;;;;;34.30;22.30;;;;;;;16.84;97.37;101298.00;105962;1261;98494;-85
2023/09/28 07:47:26;;;;;;;34.00;23.00;;;;;;;16.93;97.00;101298.94;106669;1261;102759;-89
2023/09/28 07:50:14;;;;;;;36.00;24.70;;;;;;;17.03;97.45;101299.21;106027;1262;99205;-83
2023/09/28 07:53:00;;;;;;;37.40;23.20;;;;;;;17.15;97.28;101298.47;106371;1261;98833;-91
2023/09/28 07:55:47;;;;;;;35.50;21.40;;;;;;;17.25;97.09;101296.57;105951;1260;98219;-85
2023/09/28 07:58:33;;;;;;;31.80;21.00;;;;;;;17.36;96.87;101298.94;106022;1262;97851;-85
2023/09/28 08:01:20;;;;;;;32.00;21.20;;;;;;;17.47;96.66;101298.15;105857;1262;101484;-85
2023/09/28 08:04:06;;;;;;;34.50;21.50;;;;;;;17.58;96.03;101300.27;105852;1261;99089;-85
2023/09/28 08:06:54;;;;;;;33.00;20.60;;;;;;;17.68;96.34;101299.55;105553;1264;98989;-85
2023/09/28 08:09:39;;;;;;;31.60;21.30;;;;;;;17.77;95.72;101297.95;105774;1264;98385;-84
2023/09/28 08:12:25;;;;;;;30.00;19.60;;;;;;;17.85;95.25;101297.50;105882;1261;98516;-84
2023/09/28 08:15:15;;;;;;;29.90;21.20;;;;;;;17.93;94.50;101294.95;106294;1261;103755;-88
2023/09/28 08:18:01;;;;;;;28.80;20.50;;;;;;;18.01;94.35;101295.02;106298;1264;100610;-89
2023/09/28 08:20:47;;;;;;;26.50;18.70;;;;;;;18.10;94.62;101288.88;106169;1267;98967;-89
2023/09/28 08:23:32;;;;;;;26.80;19.10;;;;;;;18.18;94.54;101284.51;105961;1264;98127;-89
2023/09/28 08:26:17;;;;;;;37.80;21.70;;;;;;;18.27;94.12;101284.91;106196;1261;97910;-85
2023/09/28 08:29:04;;;;;;;31.10;19.90;;;;;;;18.35;93.95;101284.02;105823;1266;101355;-85
2023/09/28 08:31:51;;;;;;;28.10;19.00;;;;;;;18.43;93.78;101281.38;105983;1262;99372;-85
2023/09/28 08:34:36;;;;;;;29.40;18.90;;;;;;;18.52;93.57;101280.35;105933;1261;99363;-86
2023/09/28 08:37:24;;;;;;;30.30;19.50;;;;;;;18.61;93.13;101278.48;106123;1264;97971;-84
2023/09/28 08:40:10;;;;;;;24.30;17.60;;;;;;;18.71;92.86;101273.30;106053;1264;98093;-87
2023/09/28 08:42:58;;;;;;;25.00;16.90;;;;;;;18.79;92.58;101273.83;106325;1261;102142;-85
2023/09/28 08:45:46;;;;;;;24.10;17.10;;;;;;;18.88;92.17;101272.20;106115;1261;99078;-86
2023/09/28 08:48:36;;;;;;;24.20;15.80;;;;;;;18.97;91.71;101273.70;105907;1261;97994;-88
2023/09/28 08:51:21;;;;;;;23.60;17.00;;;;;;;19.06;92.12;101270.33;105872;1261;98088;-85
2023/09/28 08:54:07;;;;;;;27.90;16.80;;;;;;;19.14;91.96;101267.86;105591;1261;98518;-84
2023/09/28 08:56:57;;;;;;;27.30;16.40;;;;;;;19.23;91.30;101264.90;105791;1261;101459;-84
2023/09/28 08:59:43;;;;;;;27.00;16.20;;;;;;;19.33;90.89;101260.41;105949;1263;99182;-85
2023/09/28 09:02:29;;;;;;;30.40;15.70;;;;;;;19.41;90.58;101260.42;105849;1264;97925;-84
2023/09/28 09:05:14;;;;;;;34.10;14.80;;;;;;;19.49;90.09;101257.92;105700;1266;97883;-84
2023/09/28 09:08:00;;;;;;;25.00;14.70;;;;;;;19.58;89.80;101257.27;105784;1261;98510;-85
2023/09/28 09:10:46;;;;;;;27.40;15.00;;;;;;;19.67;89.22;101257.67;105806;1262;102412;-84
2023/09/28 09:13:33;;;;;;;20.60;14.60;;;;;;;19.77;88.80;101258.59;105820;1265;100431;-85
2023/09/28 09:16:21;;;;;;;22.10;14.70;;;;;;;19.85;88.58;101256.38;105754;1267;99085;-86
2023/09/28 09:19:07;;;;;;;22.50;14.90;;;;;;;19.95;88.52;101252.17;106174;1266;97984;-85
2023/09/28 09:21:54;;;;;;;25.00;14.70;;;;;;;20.04;87.93;101249.30;105818;1261;97987;-86
2023/09/28 09:24:53;;;;;;;27.40;13.60;;;;;;;20.13;88.07;101249.38;106017;1262;101431;-84
2023/09/28 09:27:39;;;;;;;22.40;12.90;;;;;;;20.25;88.07;101246.38;105919;1261;99161;-88
2023/09/28 09:30:28;;;;;;;24.00;12.60;;;;;;;20.35;87.18;101247.80;105816;1266;97913;-87
2023/09/28 09:33:14;;;;;;;16.60;11.70;;;;;;;20.46;86.52;101249.84;105634;1261;99262;-86
2023/09/28 09:36:01;;;;;;;19.60;12.90;;;;;;;20.56;85.99;101248.67;105735;1261;98424;-85
2023/09/28 09:38:50;;;;;;;22.30;12.40;;;;;;;20.67;85.44;101247.39;105692;1266;103831;-86
2023/09/28 09:41:45;;;;;;;21.10;12.40;;;;;;;20.76;84.77;101247.45;105842;1264;99903;-83
2023/09/28 09:44:30;;;;;;;15.90;11.40;;;;;;;20.84;84.44;101247.58;105944;1266;98013;-84
2023/09/28 09:47:16;;;;;;;19.60;11.50;;;;;;;20.93;84.99;101246.69;105867;1266;98165;-83
2023/09/28 09:50:02;;;;;;;20.20;11.20;;;;;;;21.02;84.05;101248.42;105858;1261;99689;-82
2023/09/28 09:52:47;;;;;;;21.40;11.50;;;;;;;21.11;83.79;101247.53;105715;1261;102642;-83
2023/09/28 09:55:35;;;;;;;16.40;10.60;;;;;;;21.18;83.63;101246.89;105780;1262;100132;-83
2023/09/28 09:58:24;;;;;;;22.50;11.20;;;;;;;21.26;83.10;101243.34;105741;1261;97983;-83
2023/09/28 10:01:12;;;;;;;17.70;11.70;;;;;;;21.33;82.64;101240.17;106620;1261;99164;-83
2023/09/28 10:04:04;;;;;;;22.70;10.50;;;;;;;21.41;82.66;101236.30;105676;1261;97960;-84
2023/09/28 10:06:51;;;;;;;20.50;9.70;;;;;;;21.52;81.81;101236.34;105641;1261;101435;-83
2023/09/28 10:09:38;;;;;;;16.50;10.30;;;;;;;21.60;81.67;101240.48;105759;1266;99288;-84
2023/09/28 10:12:27;;;;;;;13.80;10.70;;;;;;;21.67;81.30;101240.83;105919;1261;97958;-83
2023/09/28 10:15:15;;;;;;;19.90;11.40;;;;;;;21.75;80.91;101238.73;105726;1261;97796;-83
2023/09/28 10:18:01;;;;;;;21.50;11.30;;;;;;;21.84;80.65;101240.45;105829;1261;97956;-83
2023/09/28 10:20:48;;;;;;;16.30;10.00;;;;;;;21.93;80.06;101236.33;105851;1261;101522;-83
2023/09/28 10:23:34;;;;;;;18.40;9.30;;;;;;;22.02;79.92;101238.77;105845;1261;99838;-83
2023/09/28 10:26:19;;;;;;;20.40;10.30;;;;;;;22.09;79.54;101235.84;105907;1262;97851;-82
2023/09/28 10:29:09;;;;;;;17.40;10.20;;;;;;;22.15;78.93;101231.31;105719;1264;100245;-83
2023/09/28 10:31:57;;;;;;;16.90;9.60;;;;;;;22.22;78.44;101228.27;105750;1261;98062;-82
2023/09/28 10:34:45;;;;;;;16.00;10.00;;;;;;;22.29;77.58;101228.81;106001;1262;102715;-83
2023/09/28 10:37:33;;;;;;;18.20;9.90;;;;;;;22.37;77.36;101227.99;105716;1266;99261;-83
2023/09/28 10:40:21;;;;;;;16.70;9.80;;;;;;;22.43;77.18;101225.54;105670;1261;98704;-84
2023/09/28 10:43:10;;;;;;;16.80;10.70;;;;;;;22.50;76.74;101225.70;105786;1261;98009;-83
2023/09/28 10:46:03;;;;;;;16.70;10.30;;;;;;;22.58;76.41;101227.36;105854;1262;97985;-83
2023/09/28 10:48:51;;;;;;;20.00;9.80;;;;;;;22.67;76.06;101227.96;106421;1264;101223;-83
2023/09/28 10:51:36;;;;;;;18.30;10.10;;;;;;;22.74;75.67;101228.73;105461;1264;99887;-83
2023/09/28 10:54:26;;;;;;;11.80;8.80;;;;;;;22.82;75.14;101230.96;105458;1267;99110;-83
2023/09/28 10:57:11;;;;;;;14.80;8.60;;;;;;;22.89;75.57;101223.41;105650;1266;98070;-83
2023/09/28 11:00:08;;;;;;;18.40;10.20;;;;;;;22.98;76.13;101222.81;105737;1261;98489;-84
2023/09/28 11:02:54;;;;;;;14.30;9.00;;;;;;;23.06;75.25;101223.04;105712;1261;101343;-85
2023/09/28 11:05:40;;;;;;;14.80;8.90;;;;;;;23.12;74.64;101220.20;105739;1266;99152;-84
2023/09/28 11:08:26;;;;;;;16.30;9.20;;;;;;;23.17;74.20;101215.47;105647;1264;99444;-85
2023/09/28 11:11:11;;;;;;;20.20;8.90;;;;;;;23.22;73.85;101215.37;105769;1262;97904;-85
2023/09/28 11:14:00;;;;;;;17.90;8.50;;;;;;;23.28;74.17;101214.52;105661;1261;98006;-83
2023/09/28 11:16:49;;;;;;;13.20;8.40;;;;;;;23.35;73.00;101212.48;105803;1261;102398;-83
2023/09/28 11:19:35;;;;;;;17.10;8.40;;;;;;;23.40;71.95;101210.10;105629;1261;99426;-83
2023/09/28 11:22:21;;;;;;;18.50;8.90;;;;;;;23.46;72.21;101206.83;105591;1261;97974;-81
2023/09/28 11:25:07;;;;;;;12.90;7.80;;;;;;;23.53;72.30;101204.06;105647;1261;97984;-84
2023/09/28 11:27:53;;;;;;;13.20;6.10;;;;;;;23.62;71.33;101201.02;105501;1261;98502;-84
2023/09/28 11:30:39;;;;;;;9.20;5.80;;;;;;;23.70;70.28;101199.14;105688;1264;102707;-84
2023/09/28 11:33:24;;;;;;;10.10;5.90;;;;;;;23.80;69.77;101197.88;105596;1265;99357;-82
2023/09/28 11:36:14;;;;;;;14.40;6.30;;;;;;;23.86;69.04;101191.64;105713;1261;99041;-83
2023/09/28 11:39:00;;;;;;;10.50;6.20;;;;;;;23.92;69.22;101191.09;105759;1267;98316;-83
2023/09/28 11:41:59;;;;;;;12.50;6.30;;;;;;;23.99;68.42;101190.60;105809;1266;97876;-82
2023/09/28 11:44:45;;;;;;;7.90;5.50;;;;;;;24.06;68.18;101189.16;105686;1261;102492;-82
2023/09/28 11:47:31;;;;;;;10.00;5.60;;;;;;;24.11;67.30;101184.33;105797;1264;100454;-84
2023/09/28 11:50:17;;;;;;;12.00;5.70;;;;;;;24.17;67.09;101180.16;105608;1266;99114;-82
2023/09/28 11:53:08;;;;;;;14.00;5.60;;;;;;;24.26;66.83;101178.48;105796;1267;97764;-83
2023/09/28 11:55:54;;;;;;;;;;;;;;;24.34;65.67;101179.64;105821;1264;96576;-81
2023/09/28 11:58:39;;;;;;;10.20;5.60;;;;;;;24.40;64.78;101176.27;105842;1262;102656;-84
2023/09/28 12:01:25;;;;;;;10.60;5.40;;;;;;;24.46;65.19;101174.95;105677;1261;99154;-84
2023/09/28 12:04:11;;;;;;;11.50;5.50;;;;;;;24.53;64.92;101177.39;105813;1262;98092;-84
2023/09/28 12:06:56;;;;;;;10.40;5.40;;;;;;;24.62;63.93;101176.67;105737;1260;98658;-83
2023/09/28 12:09:42;;;;;;;12.10;6.10;;;;;;;24.66;63.47;101174.58;105672;1267;98526;-83
2023/09/28 12:12:28;;;;;;;9.20;5.70;;;;;;;24.72;62.52;101170.56;105653;1260;101537;-84
2023/09/28 12:15:14;;;;;;;9.80;5.70;;;;;;;24.80;62.29;101169.54;105588;1264;99370;-85
2023/09/28 12:18:00;;;;;;;12.00;5.70;;;;;;;24.89;62.16;101167.88;105614;1261;99096;-85
2023/09/28 12:20:46;;;;;;;10.90;5.20;;;;;;;24.94;61.63;101168.88;105492;1262;98054;-84
2023/09/28 12:23:31;;;;;;;8.80;5.00;;;;;;;24.99;61.18;101167.36;105804;1261;100702;-83
2023/09/28 12:26:17;;;;;;;8.90;4.70;;;;;;;25.06;60.89;101169.59;105806;1262;103185;-84